createdAt,value
2023-05-19T00:00:11.215Z,41.54
2023-05-19T00:02:38.497Z,42.12
2023-05-19T00:05:15.662Z,42.01
2023-05-19T00:07:45.578Z,42.04
2023-05-19T00:10:19.161Z,41.88
2023-05-19T00:13:05.962Z,42.10
2023-05-19T00:15:32.317Z,42.64
2023-05-19T00:17:59.798Z,42.72
2023-05-19T00:20:27.551Z,43.42
2023-05-19T00:22:56.013Z,42.86
2023-05-19T00:25:28.383Z,43.40
2023-05-19T00:26:38.354Z,43.16
2023-05-19T00:29:02.496Z,43.39
2023-05-19T00:31:35.054Z,43.33
2023-05-19T00:33:59.861Z,43.27
2023-05-19T00:36:24.826Z,43.51
2023-05-19T00:38:52.813Z,43.50
2023-05-19T00:41:18.760Z,43.53
2023-05-19T00:43:43.099Z,43.22
2023-05-19T00:44:53.655Z,43.24
2023-05-19T00:47:17.999Z,43.34
2023-05-19T00:48:27.387Z,43.44
2023-05-19T00:49:37.040Z,44.11
2023-05-19T00:50:48.410Z,44.33
2023-05-19T00:51:58.150Z,44.25
2023-05-19T00:54:23.607Z,44.56
2023-05-19T00:56:50.332Z,44.49
2023-05-19T00:58:00.722Z,44.22
2023-05-19T01:00:24.714Z,44.49
2023-05-19T01:02:52.062Z,44.05
2023-05-19T01:05:17.306Z,44.12
2023-05-19T01:07:45.299Z,44.10
2023-05-19T01:08:54.266Z,44.20
2023-05-19T01:11:21.174Z,43.94
2023-05-19T01:13:47.205Z,44.68
2023-05-19T01:16:33.793Z,44.92
2023-05-19T01:17:50.188Z,44.84
2023-05-19T01:20:26.986Z,45.30
2023-05-19T01:23:20.347Z,45.79
2023-05-19T01:26:27.406Z,46.07
2023-05-19T01:30:38.784Z,45.94
2023-05-19T01:33:09.507Z,46.10
2023-05-19T01:34:23.698Z,46.54
2023-05-19T01:35:36.126Z,46.92
2023-05-19T01:38:09.367Z,47.95
2023-05-19T01:40:38.198Z,48.03
2023-05-19T01:43:03.796Z,48.78
2023-05-19T01:44:15.158Z,48.51
2023-05-19T01:46:41.449Z,48.35
2023-05-19T01:47:54.904Z,49.05
2023-05-19T01:49:05.544Z,48.86
2023-05-19T01:50:15.692Z,48.73
2023-05-19T01:52:40.585Z,49.00
2023-05-19T01:53:50.773Z,50.10
2023-05-19T01:56:19.811Z,50.76
2023-05-19T01:58:59.695Z,50.58
2023-05-19T02:00:25.065Z,50.29
2023-05-19T02:03:10.132Z,50.25
2023-05-19T02:05:52.092Z,50.75
2023-05-19T02:08:36.140Z,50.87
2023-05-19T02:11:14.277Z,51.17
2023-05-19T02:12:35.945Z,50.84
2023-05-19T02:16:40.604Z,50.84
2023-05-19T02:19:13.236Z,51.16
2023-05-19T02:20:22.417Z,51.34
2023-05-19T02:21:31.743Z,51.46
2023-05-19T02:23:58.822Z,51.44
2023-05-19T02:26:25.749Z,51.37
2023-05-19T02:27:39.225Z,51.19
2023-05-19T02:30:09.871Z,51.90
2023-05-19T02:32:33.978Z,51.67
2023-05-19T02:33:43.935Z,51.56
2023-05-19T02:36:09.646Z,51.44
2023-05-19T02:37:19.148Z,51.46
2023-05-19T02:39:44.608Z,51.28
2023-05-19T02:42:11.858Z,51.63
2023-05-19T02:44:43.896Z,51.73
2023-05-19T02:45:54.371Z,51.55
2023-05-19T02:47:04.114Z,51.75
2023-05-19T02:49:34.067Z,52.08
2023-05-19T02:50:42.835Z,52.01
2023-05-19T02:53:06.532Z,52.18
2023-05-19T02:55:30.427Z,52.26
2023-05-19T02:56:41.375Z,52.16
2023-05-19T02:57:51.558Z,52.35
2023-05-19T02:59:01.011Z,52.24
2023-05-19T03:00:11.928Z,52.21
2023-05-19T03:02:38.399Z,52.57
2023-05-19T03:05:03.276Z,53.01
2023-05-19T03:06:14.202Z,53.26
2023-05-19T03:08:42.945Z,53.64
2023-05-19T03:09:53.758Z,53.62
2023-05-19T03:12:18.445Z,53.76
2023-05-19T03:13:28.998Z,53.93
2023-05-19T03:14:39.648Z,53.68
2023-05-19T03:15:51.165Z,53.50
2023-05-19T03:17:01.236Z,53.46
2023-05-19T03:19:27.329Z,53.51
2023-05-19T03:20:38.998Z,53.40
2023-05-19T03:21:50.301Z,53.47
2023-05-19T03:23:00.641Z,53.48
2023-05-19T03:24:10.532Z,53.69
2023-05-19T03:25:20.570Z,53.67
2023-05-19T03:26:31.423Z,53.67
2023-05-19T03:27:40.894Z,53.62
2023-05-19T03:30:06.714Z,53.76
2023-05-19T03:32:33.262Z,53.67
2023-05-19T03:33:42.998Z,53.69
2023-05-19T03:34:53.939Z,53.53
2023-05-19T03:37:19.997Z,53.47
2023-05-19T03:39:44.557Z,53.39
2023-05-19T03:40:53.889Z,53.51
2023-05-19T03:43:18.490Z,53.92
2023-05-19T03:45:45.117Z,53.63
2023-05-19T03:46:59.962Z,53.45
2023-05-19T03:49:26.527Z,53.92
2023-05-19T03:51:30.741Z,53.64
2023-05-19T03:54:39.029Z,53.62
2023-05-19T03:57:05.712Z,53.47
2023-05-19T03:58:14.841Z,53.30
2023-05-19T03:59:25.021Z,53.22
2023-05-19T04:00:34.164Z,53.23
2023-05-19T04:03:00.227Z,52.99
2023-05-19T04:05:24.629Z,52.78
2023-05-19T04:07:49.201Z,52.79
2023-05-19T04:10:13.388Z,53.84
2023-05-19T04:12:39.848Z,53.71
2023-05-19T04:13:49.588Z,53.67
2023-05-19T04:14:59.417Z,53.75
2023-05-19T04:16:08.980Z,53.72
2023-05-19T04:18:33.936Z,53.47
2023-05-19T04:20:58.203Z,53.33
2023-05-19T04:23:23.024Z,53.16
2023-05-19T04:25:49.877Z,53.63
2023-05-19T04:28:17.314Z,53.41
2023-05-19T04:30:43.438Z,54.06
2023-05-19T04:31:52.694Z,54.40
2023-05-19T04:34:19.499Z,54.72
2023-05-19T04:35:29.011Z,55.09
2023-05-19T04:37:55.066Z,55.06
2023-05-19T04:40:23.842Z,55.21
2023-05-19T04:44:10.587Z,56.31
2023-05-19T04:46:36.644Z,56.05
2023-05-19T04:49:06.450Z,55.99
2023-05-19T04:50:16.486Z,56.38
2023-05-19T04:52:47.513Z,56.36
2023-05-19T04:55:14.488Z,56.30
2023-05-19T04:56:24.726Z,55.97
2023-05-19T04:58:50.163Z,55.86
2023-05-19T05:01:17.225Z,55.54
2023-05-19T05:03:45.274Z,55.08
2023-05-19T05:06:12.418Z,55.31
2023-05-19T05:08:41.010Z,55.53
2023-05-19T05:11:07.810Z,55.51
2023-05-19T05:13:34.293Z,55.27
2023-05-19T05:15:59.287Z,55.33
2023-05-19T05:18:26.383Z,55.22
2023-05-19T05:20:53.010Z,55.43
2023-05-19T05:23:17.722Z,55.04
2023-05-19T05:24:27.941Z,54.68
2023-05-19T05:26:58.620Z,54.94
2023-05-19T05:28:14.300Z,54.40
2023-05-19T05:30:38.545Z,54.27
2023-05-19T05:31:49.455Z,54.09
2023-05-19T05:32:58.695Z,54.00
2023-05-19T05:35:28.740Z,53.80
2023-05-19T05:37:53.467Z,53.51
2023-05-19T05:40:20.939Z,53.49
2023-05-19T05:42:47.611Z,53.18
2023-05-19T05:45:13.158Z,53.33
2023-05-19T05:46:24.060Z,53.28
2023-05-19T05:47:34.508Z,53.07
2023-05-19T05:48:44.998Z,52.97
2023-05-19T05:51:10.413Z,52.68
2023-05-19T05:53:44.362Z,52.26
2023-05-19T05:54:58.714Z,52.16
2023-05-19T05:57:25.092Z,51.77
2023-05-19T05:59:50.523Z,51.67
2023-05-19T06:01:02.618Z,51.78
2023-05-19T06:03:27.132Z,52.02
2023-05-19T06:05:53.501Z,51.92
2023-05-19T06:08:20.015Z,51.66
2023-05-19T06:10:47.364Z,51.23
2023-05-19T06:13:16.423Z,51.01
2023-05-19T06:15:40.793Z,51.20
2023-05-19T06:18:09.207Z,51.21
2023-05-19T06:20:34.676Z,50.79
2023-05-19T06:23:02.101Z,50.89
2023-05-19T06:24:12.377Z,51.04
2023-05-19T06:26:36.431Z,50.55
2023-05-19T06:29:01.990Z,50.67
2023-05-19T06:31:29.164Z,50.69
2023-05-19T06:33:55.450Z,50.42
2023-05-19T06:36:20.005Z,50.14
2023-05-19T06:38:44.396Z,49.94
2023-05-19T06:41:09.655Z,50.28
2023-05-19T06:43:37.192Z,50.30
2023-05-19T06:46:04.441Z,49.87
2023-05-19T06:48:33.022Z,49.39
2023-05-19T06:50:57.650Z,49.54
2023-05-19T06:53:22.068Z,49.16
2023-05-19T06:54:32.631Z,49.21
2023-05-19T06:56:57.563Z,49.31
2023-05-19T06:58:07.976Z,49.00
2023-05-19T06:59:18.597Z,48.99
2023-05-19T07:00:27.715Z,49.24
2023-05-19T07:02:53.340Z,49.01
2023-05-19T07:04:03.796Z,49.02
2023-05-19T07:05:13.921Z,48.77
2023-05-19T07:06:23.657Z,48.71
2023-05-19T07:07:33.154Z,48.73
2023-05-19T07:08:43.298Z,48.38
2023-05-19T07:09:56.094Z,48.00
2023-05-19T07:12:21.515Z,47.87
2023-05-19T07:14:48.311Z,47.22
2023-05-19T07:17:13.549Z,47.01
2023-05-19T07:19:40.604Z,46.45
2023-05-19T07:22:08.336Z,46.75
2023-05-19T07:23:18.482Z,46.31
2023-05-19T07:25:43.624Z,45.59
2023-05-19T07:28:09.812Z,45.64
2023-05-19T07:30:43.799Z,45.87
2023-05-19T07:33:09.428Z,45.66
2023-05-19T07:35:33.618Z,45.32
2023-05-19T07:37:58.708Z,45.63
2023-05-19T07:40:23.304Z,45.43
2023-05-19T07:42:50.530Z,44.29
2023-05-19T07:45:15.564Z,43.57
2023-05-19T07:48:00.807Z,43.00
2023-05-19T07:49:10.430Z,43.62
2023-05-19T07:50:21.750Z,43.43
2023-05-19T07:52:46.384Z,43.46
2023-05-19T07:55:13.503Z,43.46
2023-05-19T07:57:41.128Z,42.92
2023-05-19T08:00:11.989Z,43.25
2023-05-19T08:02:40.080Z,43.65
2023-05-19T08:05:05.909Z,43.53
2023-05-19T08:07:31.039Z,43.51
2023-05-19T08:09:56.850Z,42.90
2023-05-19T08:12:21.313Z,44.11
2023-05-19T08:14:47.088Z,44.97
2023-05-19T08:17:14.258Z,44.09
2023-05-19T08:19:39.839Z,43.93
2023-05-19T08:20:49.461Z,43.97
2023-05-19T08:23:17.069Z,43.66
2023-05-19T08:26:07.830Z,43.61
2023-05-19T08:28:31.994Z,42.95
2023-05-19T08:30:56.341Z,43.72
2023-05-19T08:33:22.984Z,43.65
2023-05-19T08:34:33.035Z,43.68
2023-05-19T08:36:59.938Z,43.82
2023-05-19T08:39:27.068Z,43.99
2023-05-19T08:41:55.286Z,44.22
2023-05-19T08:44:19.765Z,44.62
2023-05-19T08:46:47.605Z,44.29
2023-05-19T08:49:14.252Z,44.55
2023-05-19T08:55:53.896Z,43.46
2023-05-19T08:58:23.285Z,42.36
2023-05-19T08:59:33.681Z,42.44
2023-05-19T09:00:43.760Z,42.54
2023-05-19T09:03:22.800Z,43.68
2023-05-19T09:04:29.636Z,43.79
2023-05-19T09:05:48.853Z,43.63
2023-05-19T09:08:15.607Z,43.75
2023-05-19T09:10:40.921Z,44.06
2023-05-19T09:13:07.642Z,44.00
2023-05-19T09:15:36.559Z,44.35
2023-05-19T09:18:12.983Z,44.94
2023-05-19T09:20:39.513Z,44.71
2023-05-19T09:23:08.300Z,42.95
2023-05-19T09:25:34.659Z,42.96
2023-05-19T09:28:00.149Z,43.01
2023-05-19T09:30:30.043Z,43.10
2023-05-19T09:31:39.257Z,43.39
2023-05-19T09:32:49.711Z,43.69
2023-05-19T09:35:15.859Z,44.15
2023-05-19T09:37:42.171Z,43.70
2023-05-19T09:40:13.109Z,43.83
2023-05-19T09:42:39.488Z,44.51
2023-05-19T09:43:54.639Z,44.36
2023-05-19T09:46:27.758Z,43.80
2023-05-19T09:48:59.784Z,43.84
2023-05-19T09:51:29.362Z,44.35
2023-05-19T09:53:55.493Z,44.26
2023-05-19T09:56:25.095Z,43.94
2023-05-19T09:58:55.155Z,43.35
2023-05-19T10:01:33.210Z,43.34
2023-05-19T10:04:01.234Z,42.23
2023-05-19T10:05:30.601Z,43.04
2023-05-19T10:07:45.832Z,43.61
2023-05-19T10:10:13.765Z,43.44
2023-05-19T10:13:00.742Z,43.38
2023-05-19T10:15:26.239Z,44.18
2023-05-19T10:17:51.849Z,42.67
2023-05-19T10:20:19.096Z,42.21
2023-05-19T10:22:45.734Z,41.42
2023-05-19T10:25:12.441Z,43.12
2023-05-19T10:27:44.558Z,43.18
2023-05-19T10:31:30.046Z,42.99
2023-05-19T10:32:40.024Z,42.92
2023-05-19T10:34:05.690Z,42.65
2023-05-19T10:36:52.111Z,42.11
2023-05-19T10:39:28.130Z,42.13
2023-05-19T10:42:01.419Z,42.01
2023-05-19T10:45:14.978Z,41.23
2023-05-19T10:46:28.822Z,39.97
2023-05-19T10:47:40.387Z,41.09
2023-05-19T10:50:06.974Z,42.92
2023-05-19T10:52:30.631Z,42.64
2023-05-19T10:55:12.627Z,41.99
2023-05-19T10:59:32.691Z,42.45
2023-05-19T11:01:57.638Z,41.90
2023-05-19T11:04:51.692Z,43.12
2023-05-19T11:06:28.520Z,42.91
2023-05-19T11:09:05.998Z,42.96
2023-05-19T11:11:53.421Z,43.82
2023-05-19T11:14:27.022Z,44.28
2023-05-19T11:16:59.472Z,45.15
2023-05-19T11:19:28.878Z,44.32
2023-05-19T11:21:55.378Z,43.91
2023-05-19T11:24:46.195Z,43.67
2023-05-19T11:27:24.564Z,43.38
2023-05-19T11:28:34.886Z,43.30
2023-05-19T11:31:02.873Z,43.37
2023-05-19T11:33:32.132Z,43.61
2023-05-19T11:35:58.513Z,43.51
2023-05-19T11:38:44.738Z,43.12
2023-05-19T11:41:08.504Z,43.05
2023-05-19T11:43:32.941Z,43.48
2023-05-19T11:45:58.262Z,43.62
2023-05-19T11:48:26.487Z,43.26
2023-05-19T11:50:53.054Z,43.51
2023-05-19T11:53:20.705Z,44.31
2023-05-19T11:54:33.776Z,44.44
2023-05-19T11:57:03.785Z,44.85
2023-05-19T12:00:51.115Z,45.21
2023-05-19T12:03:26.573Z,45.21
2023-05-19T12:05:52.129Z,44.60
2023-05-19T12:08:21.192Z,44.69
2023-05-19T12:10:50.559Z,43.84
2023-05-19T12:12:00.507Z,44.16
2023-05-19T12:14:27.273Z,44.44
2023-05-19T12:17:19.442Z,44.43
2023-05-19T12:19:51.684Z,44.45
2023-05-19T12:22:17.812Z,44.26
2023-05-19T12:24:48.687Z,43.91
2023-05-19T12:26:01.918Z,43.73
2023-05-19T12:28:37.550Z,44.15
2023-05-19T12:29:54.514Z,44.41
2023-05-19T12:32:21.336Z,44.57
2023-05-19T12:34:47.650Z,45.13
2023-05-19T12:37:34.586Z,45.46
2023-05-19T12:40:01.560Z,46.04
2023-05-19T12:42:31.860Z,46.29
2023-05-19T12:43:42.944Z,46.15
2023-05-19T12:46:11.933Z,46.15
2023-05-19T12:48:43.450Z,45.93
2023-05-19T12:51:18.453Z,46.68
2023-05-19T12:52:29.486Z,46.44
2023-05-19T12:55:07.069Z,46.61
2023-05-19T12:57:40.093Z,46.90
2023-05-19T13:00:12.984Z,47.49
2023-05-19T13:01:31.862Z,46.97
2023-05-19T13:04:21.491Z,47.09
2023-05-19T13:07:01.226Z,48.23
2023-05-19T13:09:29.580Z,48.98
2023-05-19T13:11:58.356Z,47.95
2023-05-19T13:14:22.686Z,49.34
2023-05-19T13:16:53.473Z,50.35
2023-05-19T13:21:53.402Z,49.50
2023-05-19T13:24:26.906Z,50.36
2023-05-19T13:26:53.980Z,51.92
2023-05-19T13:29:23.152Z,51.91
2023-05-19T13:31:49.263Z,52.39
2023-05-19T13:34:14.254Z,52.01
2023-05-19T13:36:38.703Z,51.96
2023-05-19T13:39:04.751Z,52.25
2023-05-19T13:41:30.418Z,52.22
2023-05-19T13:44:02.480Z,52.04
2023-05-19T13:46:44.945Z,52.52
2023-05-19T13:47:43.776Z,52.45
2023-05-19T13:50:07.890Z,52.33
2023-05-19T13:52:32.961Z,51.56
2023-05-19T13:54:56.950Z,50.62
2023-05-19T13:58:39.710Z,51.81
2023-05-19T14:00:00.761Z,52.17
2023-05-19T14:02:16.160Z,52.62
2023-05-19T14:03:26.114Z,52.29
2023-05-19T14:04:39.809Z,52.08
2023-05-19T14:07:07.742Z,52.76
2023-05-19T14:09:32.381Z,52.58
2023-05-19T14:12:18.649Z,53.06
2023-05-19T14:13:34.465Z,53.95
2023-05-19T14:14:40.920Z,53.49
2023-05-19T14:17:05.508Z,53.29
2023-05-19T14:19:32.120Z,53.31
2023-05-19T14:21:57.519Z,52.64
2023-05-19T14:24:24.540Z,52.52
2023-05-19T14:26:50.981Z,52.40
2023-05-19T14:29:17.213Z,52.42
2023-05-19T14:31:41.962Z,52.31
2023-05-19T14:34:28.344Z,52.06
2023-05-19T14:35:40.263Z,52.30
2023-05-19T14:38:04.547Z,51.76
2023-05-19T14:40:30.465Z,51.90
2023-05-19T14:42:55.390Z,51.63
2023-05-19T14:45:21.539Z,51.58
2023-05-19T14:47:47.715Z,52.17
2023-05-19T14:48:57.757Z,51.93
2023-05-19T14:51:24.147Z,52.32
2023-05-19T14:52:39.652Z,52.49
2023-05-19T14:53:50.319Z,52.21
2023-05-19T14:56:15.116Z,53.61
2023-05-19T14:58:39.799Z,53.11
2023-05-19T15:01:05.081Z,52.31
2023-05-19T15:03:29.184Z,52.68
2023-05-19T15:05:52.859Z,52.25
2023-05-19T15:08:22.567Z,53.34
2023-05-19T15:09:32.190Z,53.46
2023-05-19T15:11:57.591Z,53.99
2023-05-19T15:13:08.240Z,54.14
2023-05-19T15:15:32.236Z,53.69
2023-05-19T15:17:58.157Z,54.58
2023-05-19T15:20:45.696Z,54.74
2023-05-19T15:23:10.940Z,54.58
2023-05-19T15:25:36.048Z,54.18
2023-05-19T15:28:00.959Z,53.75
2023-05-19T15:30:24.550Z,53.39
2023-05-19T15:32:49.319Z,53.05
2023-05-19T15:35:13.154Z,52.93
2023-05-19T15:36:23.525Z,53.51
2023-05-19T15:38:50.523Z,53.96
2023-05-19T15:41:15.378Z,54.59
2023-05-19T15:43:40.989Z,53.46
2023-05-19T15:44:49.832Z,52.94
2023-05-19T15:47:13.542Z,51.95
2023-05-19T15:49:38.199Z,52.36
2023-05-19T15:52:09.333Z,52.77
2023-05-19T15:53:20.105Z,52.67
2023-05-19T15:56:13.957Z,53.12
2023-05-19T15:57:23.120Z,52.97
2023-05-19T15:59:47.730Z,53.30
2023-05-19T16:02:15.051Z,54.11
2023-05-19T16:04:39.982Z,54.39
2023-05-19T16:07:03.757Z,54.02
2023-05-19T16:09:33.753Z,54.51
2023-05-19T16:11:58.528Z,54.60
2023-05-19T16:14:27.453Z,54.26
2023-05-19T16:16:52.377Z,54.47
2023-05-19T16:18:02.427Z,54.46
2023-05-19T16:19:11.145Z,54.40
2023-05-19T16:21:40.533Z,54.26
2023-05-19T16:24:05.261Z,54.68
2023-05-19T16:26:30.008Z,55.48
2023-05-19T16:28:55.734Z,55.19
2023-05-19T16:31:22.397Z,55.81
2023-05-19T16:33:47.353Z,56.10
2023-05-19T16:34:56.083Z,56.27
2023-05-19T16:36:07.032Z,56.69
2023-05-19T16:38:30.741Z,57.30
2023-05-19T16:40:54.908Z,57.57
2023-05-19T16:43:21.498Z,58.64
2023-05-19T16:45:47.304Z,58.88
2023-05-19T16:48:12.950Z,58.52
2023-05-19T16:50:37.313Z,58.61
2023-05-19T16:51:48.883Z,59.07
2023-05-19T16:54:14.612Z,58.90
2023-05-19T16:55:24.928Z,58.71
2023-05-19T16:57:49.647Z,58.53
2023-05-19T17:00:16.566Z,59.21
2023-05-19T17:01:26.072Z,59.19
2023-05-19T17:03:50.741Z,59.26
2023-05-19T17:06:15.734Z,60.01
2023-05-19T17:08:42.389Z,60.22
2023-05-19T17:11:07.191Z,60.38
2023-05-19T17:13:32.776Z,60.45
2023-05-19T17:14:43.032Z,60.61
2023-05-19T17:17:10.058Z,60.76
2023-05-19T17:19:35.224Z,60.47
2023-05-19T17:22:01.206Z,60.49
2023-05-19T17:23:10.580Z,60.60
2023-05-19T17:25:34.217Z,60.77
2023-05-19T17:27:59.576Z,60.40
2023-05-19T17:29:09.005Z,60.72
2023-05-19T17:31:35.805Z,60.43
2023-05-19T17:32:46.006Z,60.36
2023-05-19T17:35:12.295Z,60.68
2023-05-19T17:37:39.828Z,61.28
2023-05-19T17:40:04.587Z,61.15
2023-05-19T17:42:32.028Z,61.85
2023-05-19T17:43:42.330Z,62.02
2023-05-19T17:46:07.107Z,62.23
2023-05-19T17:48:32.099Z,62.09
2023-05-19T17:50:57.744Z,62.11
2023-05-19T17:53:25.084Z,62.50
2023-05-19T17:54:36.336Z,62.64
2023-05-19T17:57:08.405Z,62.88
2023-05-19T17:59:34.670Z,62.71
2023-05-19T18:02:00.030Z,63.12
2023-05-19T18:04:26.282Z,62.88
2023-05-19T18:06:52.111Z,63.50
2023-05-19T18:09:27.890Z,63.47
2023-05-19T18:11:55.108Z,63.43
2023-05-19T18:14:21.079Z,63.35
2023-05-19T18:16:50.070Z,64.05
2023-05-19T18:19:21.645Z,64.16
2023-05-19T18:21:47.814Z,64.30
2023-05-19T18:24:16.353Z,64.99
2023-05-19T18:26:41.566Z,65.36
2023-05-19T18:29:11.419Z,65.61
2023-05-19T18:31:38.500Z,65.55
2023-05-19T18:34:05.107Z,65.68
2023-05-19T18:36:29.587Z,65.94
2023-05-19T18:38:56.818Z,66.23
2023-05-19T18:41:22.128Z,66.51
2023-05-19T18:43:47.631Z,66.26
2023-05-19T18:46:12.840Z,66.31
2023-05-19T18:48:38.622Z,66.00
2023-05-19T18:51:03.425Z,66.40
2023-05-19T18:53:28.494Z,66.57
2023-05-19T18:55:53.130Z,66.46
2023-05-19T18:58:18.507Z,66.79
2023-05-19T19:00:42.752Z,66.94
2023-05-19T19:03:11.455Z,66.39
2023-05-19T19:05:36.531Z,67.05
2023-05-19T19:08:05.541Z,67.17
2023-05-19T19:10:32.154Z,66.78
2023-05-19T19:12:57.544Z,66.75
2023-05-19T19:15:24.670Z,66.44
2023-05-19T19:17:49.037Z,66.52
2023-05-19T19:20:14.577Z,66.11
2023-05-19T19:22:39.157Z,65.94
2023-05-19T19:23:49.009Z,65.82
2023-05-19T19:26:13.004Z,65.73
2023-05-19T19:28:38.803Z,65.90
2023-05-19T19:31:03.304Z,65.61
2023-05-19T19:33:27.647Z,65.43
2023-05-19T19:35:51.972Z,65.96
2023-05-19T19:38:15.808Z,65.83
2023-05-19T19:40:39.609Z,65.30
2023-05-19T19:43:05.302Z,64.75
2023-05-19T19:45:30.102Z,64.79
2023-05-19T19:47:54.087Z,64.88
2023-05-19T19:50:18.145Z,64.42
2023-05-19T19:51:27.542Z,64.31
2023-05-19T19:53:52.058Z,63.96
2023-05-19T19:56:16.891Z,64.08
2023-05-19T19:58:42.755Z,64.66
2023-05-19T20:01:11.278Z,65.01
2023-05-19T20:03:35.467Z,65.55
2023-05-19T20:06:01.405Z,66.38
2023-05-19T20:08:26.845Z,66.40
2023-05-19T20:09:37.423Z,66.11
2023-05-19T20:12:06.187Z,66.17
2023-05-19T20:14:33.848Z,66.68
2023-05-19T20:15:44.261Z,66.84
2023-05-19T20:18:10.712Z,66.86
2023-05-19T20:19:19.614Z,66.93
2023-05-19T20:21:45.295Z,67.10
2023-05-19T20:24:09.068Z,66.98
2023-05-19T20:25:17.781Z,67.01
2023-05-19T20:26:28.584Z,66.46
2023-05-19T20:28:52.789Z,66.72
2023-05-19T20:31:18.166Z,67.26
2023-05-19T20:32:27.926Z,67.11
2023-05-19T20:33:37.047Z,67.16
2023-05-19T20:36:01.006Z,67.48
2023-05-19T20:38:25.122Z,67.49
2023-05-19T20:40:51.342Z,67.60
2023-05-19T20:42:01.577Z,67.48
2023-05-19T20:43:11.853Z,67.44
2023-05-19T20:45:37.412Z,67.26
2023-05-19T20:48:05.295Z,67.09
2023-05-19T20:50:30.371Z,66.96
2023-05-19T20:52:55.454Z,67.34
2023-05-19T20:55:21.652Z,67.33
2023-05-19T20:56:40.153Z,67.25
2023-05-19T20:59:03.713Z,67.25
2023-05-19T21:01:30.358Z,67.25
2023-05-19T21:03:54.178Z,67.11
2023-05-19T21:06:18.727Z,66.61
2023-05-19T21:08:42.498Z,66.78
2023-05-19T21:11:08.000Z,66.82
2023-05-19T21:13:32.309Z,66.72
2023-05-19T21:15:56.919Z,66.50
2023-05-19T21:17:06.979Z,66.25
2023-05-19T21:19:37.111Z,66.40
2023-05-19T21:22:01.642Z,66.72
2023-05-19T21:24:25.233Z,66.98
2023-05-19T21:26:50.837Z,67.45
2023-05-19T21:29:14.850Z,67.29
2023-05-19T21:31:41.824Z,67.42
2023-05-19T21:34:09.043Z,67.54
2023-05-19T21:36:34.629Z,67.68
2023-05-19T21:39:00.001Z,67.74
2023-05-19T21:41:25.832Z,68.16
2023-05-19T21:43:50.671Z,69.00
2023-05-19T21:45:00.473Z,69.00
2023-05-19T21:47:27.386Z,69.11
2023-05-19T21:48:36.555Z,69.28
2023-05-19T21:51:01.380Z,69.71
2023-05-19T21:53:26.691Z,69.75
2023-05-19T21:55:51.307Z,69.72
2023-05-19T21:57:00.808Z,69.64
2023-05-19T21:59:24.652Z,70.31
2023-05-19T22:01:49.644Z,69.95
2023-05-19T22:04:16.630Z,69.69
2023-05-19T22:05:26.964Z,69.74
2023-05-19T22:07:51.738Z,69.26
2023-05-19T22:10:18.133Z,68.96
2023-05-19T22:12:42.354Z,68.46
2023-05-19T22:15:10.589Z,69.20
2023-05-19T22:17:37.524Z,69.18
2023-05-19T22:18:47.252Z,68.87
2023-05-19T22:21:11.027Z,69.22
2023-05-19T22:23:35.026Z,69.79
2023-05-19T22:25:59.654Z,69.41
2023-05-19T22:27:09.202Z,69.33
2023-05-19T22:29:39.124Z,69.73
2023-05-19T22:32:10.986Z,69.38
2023-05-19T22:34:34.588Z,70.17
2023-05-19T22:36:58.671Z,70.00
2023-05-19T22:39:23.428Z,69.15
2023-05-19T22:41:48.521Z,68.74
2023-05-19T22:44:16.475Z,68.87
2023-05-19T22:46:41.069Z,68.79
2023-05-19T22:49:05.453Z,68.62
2023-05-19T22:51:32.707Z,69.24
2023-05-19T22:53:56.401Z,68.63
2023-05-19T22:56:23.719Z,69.52
2023-05-19T22:58:48.531Z,69.45
2023-05-19T23:01:14.538Z,69.00
2023-05-19T23:02:23.628Z,69.18
2023-05-19T23:04:47.387Z,69.55
2023-05-19T23:07:11.482Z,69.83
2023-05-19T23:09:36.648Z,69.83
2023-05-19T23:12:01.502Z,69.90
2023-05-19T23:13:12.673Z,69.54
2023-05-19T23:14:21.675Z,69.40
2023-05-19T23:16:46.857Z,70.24
2023-05-19T23:19:12.285Z,70.29
2023-05-19T23:21:37.242Z,69.95
2023-05-19T23:24:03.170Z,69.28
2023-05-19T23:26:27.904Z,68.86
2023-05-19T23:28:53.849Z,68.69
2023-05-19T23:31:19.149Z,68.85
2023-05-19T23:33:43.619Z,69.13
2023-05-19T23:36:10.015Z,69.71
2023-05-19T23:37:20.097Z,69.51
2023-05-19T23:39:44.692Z,69.45
2023-05-19T23:42:10.269Z,70.15
2023-05-19T23:43:26.770Z,69.61
2023-05-19T23:44:42.157Z,69.24
2023-05-19T23:45:51.986Z,69.50
2023-05-19T23:47:00.822Z,69.20
2023-05-19T23:49:26.828Z,69.37
2023-05-19T23:51:51.694Z,69.66
2023-05-19T23:54:16.946Z,69.31
2023-05-19T23:56:40.553Z,69.78
2023-05-19T23:59:05.822Z,70.01
